sensor_id;sensor_type;location;lat;lon;timestamp;P1;durP1;ratioP1;P2;durP2;ratioP2
18576;SDS011;9418;52.694;13.294;2022-07-26T00:02:04;4.90;;;2.80;;
18576;SDS011;9418;52.694;13.294;2022-07-26T00:04:31;8.23;;;3.13;;
18576;SDS011;9418;52.694;13.294;2022-07-26T00:06:57;8.70;;;4.13;;
18576;SDS011;9418;52.694;13.294;2022-07-26T00:09:24;3.87;;;3.53;;
18576;SDS011;9418;52.694;13.294;2022-07-26T00:11:50;3.97;;;3.37;;
18576;SDS011;9418;52.694;13.294;2022-07-26T00:14:17;14.40;;;3.70;;
18576;SDS011;9418;52.694;13.294;2022-07-26T00:16:45;4.23;;;3.70;;
18576;SDS011;9418;52.694;13.294;2022-07-26T00:19:12;6.03;;;3.60;;
18576;SDS011;9418;52.694;13.294;2022-07-26T00:21:38;6.20;;;3.73;;
18576;SDS011;9418;52.694;13.294;2022-07-26T00:24:05;6.43;;;3.90;;
18576;SDS011;9418;52.694;13.294;2022-07-26T00:26:33;7.93;;;4.27;;
18576;SDS011;9418;52.694;13.294;2022-07-26T00:28:59;5.10;;;3.90;;
18576;SDS011;9418;52.694;13.294;2022-07-26T00:31:28;5.27;;;3.30;;
18576;SDS011;9418;52.694;13.294;2022-07-26T00:33:56;6.93;;;3.97;;
18576;SDS011;9418;52.694;13.294;2022-07-26T00:36:22;6.13;;;4.07;;
18576;SDS011;9418;52.694;13.294;2022-07-26T00:38:49;7.93;;;4.53;;
18576;SDS011;9418;52.694;13.294;2022-07-26T00:41:16;6.77;;;4.00;;
18576;SDS011;9418;52.694;13.294;2022-07-26T00:43:52;4.60;;;4.00;;
18576;SDS011;9418;52.694;13.294;2022-07-26T00:46:22;4.87;;;4.10;;
18576;SDS011;9418;52.694;13.294;2022-07-26T00:48:49;5.07;;;4.00;;
18576;SDS011;9418;52.694;13.294;2022-07-26T00:51:17;7.60;;;4.47;;
18576;SDS011;9418;52.694;13.294;2022-07-26T00:53:46;4.47;;;4.10;;
18576;SDS011;9418;52.694;13.294;2022-07-26T00:56:13;4.10;;;3.80;;
18576;SDS011;9418;52.694;13.294;2022-07-26T00:58:40;5.57;;;3.90;;
18576;SDS011;9418;52.694;13.294;2022-07-26T01:01:07;5.37;;;4.23;;
18576;SDS011;9418;52.694;13.294;2022-07-26T01:03:34;7.03;;;3.60;;
18576;SDS011;9418;52.694;13.294;2022-07-26T01:06:01;4.40;;;4.00;;
18576;SDS011;9418;52.694;13.294;2022-07-26T01:08:29;3.90;;;3.70;;
18576;SDS011;9418;52.694;13.294;2022-07-26T01:10:56;6.20;;;4.00;;
18576;SDS011;9418;52.694;13.294;2022-07-26T01:13:22;6.37;;;4.03;;
18576;SDS011;9418;52.694;13.294;2022-07-26T01:15:49;6.90;;;4.63;;
18576;SDS011;9418;52.694;13.294;2022-07-26T01:18:15;4.70;;;4.20;;
18576;SDS011;9418;52.694;13.294;2022-07-26T01:20:42;5.83;;;5.10;;
18576;SDS011;9418;52.694;13.294;2022-07-26T01:23:11;5.23;;;4.73;;
18576;SDS011;9418;52.694;13.294;2022-07-26T01:25:38;10.23;;;5.00;;
18576;SDS011;9418;52.694;13.294;2022-07-26T01:28:04;5.00;;;4.60;;
18576;SDS011;9418;52.694;13.294;2022-07-26T01:30:31;5.90;;;5.27;;
18576;SDS011;9418;52.694;13.294;2022-07-26T01:32:57;6.40;;;5.77;;
18576;SDS011;9418;52.694;13.294;2022-07-26T01:35:24;7.23;;;4.87;;
18576;SDS011;9418;52.694;13.294;2022-07-26T01:37:50;6.60;;;6.00;;
18576;SDS011;9418;52.694;13.294;2022-07-26T01:40:19;8.73;;;5.10;;
18576;SDS011;9418;52.694;13.294;2022-07-26T01:42:46;5.97;;;5.43;;
18576;SDS011;9418;52.694;13.294;2022-07-26T01:45:12;6.20;;;5.70;;
18576;SDS011;9418;52.694;13.294;2022-07-26T01:47:39;5.07;;;4.60;;
18576;SDS011;9418;52.694;13.294;2022-07-26T01:50:06;7.67;;;5.73;;
18576;SDS011;9418;52.694;13.294;2022-07-26T01:52:33;8.10;;;5.53;;
18576;SDS011;9418;52.694;13.294;2022-07-26T01:55:01;10.97;;;6.93;;
18576;SDS011;9418;52.694;13.294;2022-07-26T01:57:29;7.00;;;6.40;;
18576;SDS011;9418;52.694;13.294;2022-07-26T01:59:55;6.33;;;5.77;;
18576;SDS011;9418;52.694;13.294;2022-07-26T02:02:22;6.63;;;6.03;;
18576;SDS011;9418;52.694;13.294;2022-07-26T02:04:48;6.33;;;5.80;;
18576;SDS011;9418;52.694;13.294;2022-07-26T02:07:24;9.70;;;7.20;;
18576;SDS011;9418;52.694;13.294;2022-07-26T02:09:50;7.43;;;6.73;;
18576;SDS011;9418;52.694;13.294;2022-07-26T02:12:17;7.80;;;6.53;;
18576;SDS011;9418;52.694;13.294;2022-07-26T02:14:45;7.93;;;6.57;;
18576;SDS011;9418;52.694;13.294;2022-07-26T02:17:11;8.00;;;6.40;;
18576;SDS011;9418;52.694;13.294;2022-07-26T02:19:38;6.83;;;6.13;;
18576;SDS011;9418;52.694;13.294;2022-07-26T02:22:06;7.40;;;6.70;;
18576;SDS011;9418;52.694;13.294;2022-07-26T02:24:32;7.70;;;6.73;;
18576;SDS011;9418;52.694;13.294;2022-07-26T02:26:59;7.30;;;6.60;;
18576;SDS011;9418;52.694;13.294;2022-07-26T02:29:27;7.47;;;6.50;;
18576;SDS011;9418;52.694;13.294;2022-07-26T02:31:56;6.90;;;6.20;;
18576;SDS011;9418;52.694;13.294;2022-07-26T02:34:23;8.87;;;7.50;;
18576;SDS011;9418;52.694;13.294;2022-07-26T02:36:50;7.73;;;6.90;;
18576;SDS011;9418;52.694;13.294;2022-07-26T02:39:17;7.87;;;6.20;;
18576;SDS011;9418;52.694;13.294;2022-07-26T02:41:44;7.47;;;6.70;;
18576;SDS011;9418;52.694;13.294;2022-07-26T02:44:10;7.13;;;6.10;;
18576;SDS011;9418;52.694;13.294;2022-07-26T02:46:37;7.67;;;6.77;;
18576;SDS011;9418;52.694;13.294;2022-07-26T02:49:05;10.17;;;7.10;;
18576;SDS011;9418;52.694;13.294;2022-07-26T02:51:31;6.70;;;6.03;;
18576;SDS011;9418;52.694;13.294;2022-07-26T02:53:58;7.10;;;6.47;;
18576;SDS011;9418;52.694;13.294;2022-07-26T02:56:24;7.90;;;7.20;;
18576;SDS011;9418;52.694;13.294;2022-07-26T02:58:51;10.87;;;6.93;;
18576;SDS011;9418;52.694;13.294;2022-07-26T03:01:17;7.60;;;6.80;;
18576;SDS011;9418;52.694;13.294;2022-07-26T03:03:44;8.70;;;6.70;;
18576;SDS011;9418;52.694;13.294;2022-07-26T03:06:12;7.20;;;6.60;;
18576;SDS011;9418;52.694;13.294;2022-07-26T03:08:38;7.13;;;6.53;;
18576;SDS011;9418;52.694;13.294;2022-07-26T03:11:05;7.17;;;6.13;;
18576;SDS011;9418;52.694;13.294;2022-07-26T03:13:32;7.97;;;6.70;;
18576;SDS011;9418;52.694;13.294;2022-07-26T03:15:58;7.70;;;6.50;;
18576;SDS011;9418;52.694;13.294;2022-07-26T03:18:25;7.20;;;6.33;;
18576;SDS011;9418;52.694;13.294;2022-07-26T03:20:52;11.33;;;6.90;;
18576;SDS011;9418;52.694;13.294;2022-07-26T03:23:20;6.53;;;6.03;;
18576;SDS011;9418;52.694;13.294;2022-07-26T03:25:47;6.43;;;5.83;;
18576;SDS011;9418;52.694;13.294;2022-07-26T03:28:13;8.20;;;6.77;;
18576;SDS011;9418;52.694;13.294;2022-07-26T03:30:40;6.53;;;5.93;;
18576;SDS011;9418;52.694;13.294;2022-07-26T03:33:06;7.27;;;6.17;;
18576;SDS011;9418;52.694;13.294;2022-07-26T03:35:33;10.10;;;6.47;;
18576;SDS011;9418;52.694;13.294;2022-07-26T03:38:00;8.40;;;6.30;;
18576;SDS011;9418;52.694;13.294;2022-07-26T03:40:28;6.23;;;5.73;;
18576;SDS011;9418;52.694;13.294;2022-07-26T03:42:54;6.50;;;5.90;;
18576;SDS011;9418;52.694;13.294;2022-07-26T03:45:21;8.13;;;6.30;;
18576;SDS011;9418;52.694;13.294;2022-07-26T03:47:47;6.93;;;6.07;;
18576;SDS011;9418;52.694;13.294;2022-07-26T03:50:14;7.63;;;6.23;;
18576;SDS011;9418;52.694;13.294;2022-07-26T03:52:40;7.63;;;5.73;;
18576;SDS011;9418;52.694;13.294;2022-07-26T03:55:07;9.40;;;6.60;;
18576;SDS011;9418;52.694;13.294;2022-07-26T03:57:53;9.13;;;6.07;;
18576;SDS011;9418;52.694;13.294;2022-07-26T04:00:20;8.23;;;6.10;;
18576;SDS011;9418;52.694;13.294;2022-07-26T04:02:47;7.90;;;5.13;;
18576;SDS011;9418;52.694;13.294;2022-07-26T04:05:13;6.20;;;5.50;;
18576;SDS011;9418;52.694;13.294;2022-07-26T04:07:40;7.73;;;6.33;;
18576;SDS011;9418;52.694;13.294;2022-07-26T04:10:08;10.40;;;5.70;;
18576;SDS011;9418;52.694;13.294;2022-07-26T04:12:35;6.00;;;5.43;;
18576;SDS011;9418;52.694;13.294;2022-07-26T04:15:03;7.70;;;6.63;;
18576;SDS011;9418;52.694;13.294;2022-07-26T04:17:35;14.63;;;5.07;;
18576;SDS011;9418;52.694;13.294;2022-07-26T04:20:02;8.33;;;5.10;;
18576;SDS011;9418;52.694;13.294;2022-07-26T04:22:29;10.80;;;5.53;;
18576;SDS011;9418;52.694;13.294;2022-07-26T04:24:55;7.30;;;4.73;;
18576;SDS011;9418;52.694;13.294;2022-07-26T04:27:22;6.27;;;5.63;;
18576;SDS011;9418;52.694;13.294;2022-07-26T04:29:49;7.67;;;5.53;;
18576;SDS011;9418;52.694;13.294;2022-07-26T04:32:17;8.70;;;5.07;;
18576;SDS011;9418;52.694;13.294;2022-07-26T04:34:43;5.50;;;5.00;;
18576;SDS011;9418;52.694;13.294;2022-07-26T04:37:10;6.70;;;5.50;;
18576;SDS011;9418;52.694;13.294;2022-07-26T04:39:36;5.13;;;4.63;;
18576;SDS011;9418;52.694;13.294;2022-07-26T04:42:03;8.87;;;4.90;;
18576;SDS011;9418;52.694;13.294;2022-07-26T04:44:29;5.60;;;4.30;;
18576;SDS011;9418;52.694;13.294;2022-07-26T04:46:56;6.43;;;5.03;;
18576;SDS011;9418;52.694;13.294;2022-07-26T04:49:24;8.83;;;4.90;;
18576;SDS011;9418;52.694;13.294;2022-07-26T04:51:50;6.87;;;4.50;;
18576;SDS011;9418;52.694;13.294;2022-07-26T04:54:17;9.73;;;4.60;;
18576;SDS011;9418;52.694;13.294;2022-07-26T04:56:44;6.27;;;4.40;;
18576;SDS011;9418;52.694;13.294;2022-07-26T04:59:11;9.70;;;4.90;;
18576;SDS011;9418;52.694;13.294;2022-07-26T05:01:37;8.27;;;5.20;;
18576;SDS011;9418;52.694;13.294;2022-07-26T05:04:04;11.23;;;5.20;;
18576;SDS011;9418;52.694;13.294;2022-07-26T05:06:32;5.53;;;4.50;;
18576;SDS011;9418;52.694;13.294;2022-07-26T05:08:58;6.20;;;4.53;;
18576;SDS011;9418;52.694;13.294;2022-07-26T05:11:25;6.97;;;4.53;;
18576;SDS011;9418;52.694;13.294;2022-07-26T05:13:52;5.97;;;4.60;;
18576;SDS011;9418;52.694;13.294;2022-07-26T05:16:18;8.70;;;4.13;;
18576;SDS011;9418;52.694;13.294;2022-07-26T05:18:45;8.73;;;4.27;;
18576;SDS011;9418;52.694;13.294;2022-07-26T05:21:11;6.70;;;3.70;;
18576;SDS011;9418;52.694;13.294;2022-07-26T05:23:39;5.83;;;3.90;;
18576;SDS011;9418;52.694;13.294;2022-07-26T05:26:06;7.77;;;4.27;;
18576;SDS011;9418;52.694;13.294;2022-07-26T05:28:32;5.70;;;3.80;;
18576;SDS011;9418;52.694;13.294;2022-07-26T05:30:59;5.13;;;3.33;;
18576;SDS011;9418;52.694;13.294;2022-07-26T05:33:26;8.63;;;3.63;;
18576;SDS011;9418;52.694;13.294;2022-07-26T05:35:52;7.03;;;3.93;;
18576;SDS011;9418;52.694;13.294;2022-07-26T05:38:19;4.80;;;3.80;;
18576;SDS011;9418;52.694;13.294;2022-07-26T05:40:47;10.53;;;3.50;;
18576;SDS011;9418;52.694;13.294;2022-07-26T05:43:14;4.47;;;2.77;;
18576;SDS011;9418;52.694;13.294;2022-07-26T05:45:40;7.57;;;3.87;;
18576;SDS011;9418;52.694;13.294;2022-07-26T05:48:07;3.37;;;2.80;;
18576;SDS011;9418;52.694;13.294;2022-07-26T05:50:33;5.20;;;2.73;;
18576;SDS011;9418;52.694;13.294;2022-07-26T05:53:00;7.90;;;3.40;;
18576;SDS011;9418;52.694;13.294;2022-07-26T05:55:27;10.17;;;3.77;;
18576;SDS011;9418;52.694;13.294;2022-07-26T05:57:54;3.60;;;3.20;;
18576;SDS011;9418;52.694;13.294;2022-07-26T06:00:21;8.13;;;3.17;;
18576;SDS011;9418;52.694;13.294;2022-07-26T06:02:47;4.13;;;3.20;;
18576;SDS011;9418;52.694;13.294;2022-07-26T06:05:14;4.40;;;3.00;;
18576;SDS011;9418;52.694;13.294;2022-07-26T06:07:41;10.13;;;3.40;;
18576;SDS011;9418;52.694;13.294;2022-07-26T06:10:08;8.63;;;2.87;;
18576;SDS011;9418;52.694;13.294;2022-07-26T06:12:35;6.47;;;3.43;;
18576;SDS011;9418;52.694;13.294;2022-07-26T06:15:03;8.07;;;3.40;;
18576;SDS011;9418;52.694;13.294;2022-07-26T06:17:30;6.77;;;3.13;;
18576;SDS011;9418;52.694;13.294;2022-07-26T06:19:57;9.90;;;3.70;;
18576;SDS011;9418;52.694;13.294;2022-07-26T06:22:24;12.00;;;3.33;;
18576;SDS011;9418;52.694;13.294;2022-07-26T06:24:50;7.33;;;2.83;;
18576;SDS011;9418;52.694;13.294;2022-07-26T06:27:17;5.27;;;2.60;;
18576;SDS011;9418;52.694;13.294;2022-07-26T06:29:43;5.97;;;3.00;;
18576;SDS011;9418;52.694;13.294;2022-07-26T06:32:13;7.90;;;4.00;;
18576;SDS011;9418;52.694;13.294;2022-07-26T06:34:40;7.43;;;2.63;;
18576;SDS011;9418;52.694;13.294;2022-07-26T06:37:06;7.43;;;2.77;;
18576;SDS011;9418;52.694;13.294;2022-07-26T06:39:33;13.30;;;3.17;;
18576;SDS011;9418;52.694;13.294;2022-07-26T06:41:59;6.40;;;2.67;;
18576;SDS011;9418;52.694;13.294;2022-07-26T06:44:26;6.43;;;2.70;;
18576;SDS011;9418;52.694;13.294;2022-07-26T06:46:53;18.80;;;3.20;;
18576;SDS011;9418;52.694;13.294;2022-07-26T06:49:20;4.83;;;2.43;;
18576;SDS011;9418;52.694;13.294;2022-07-26T06:51:47;7.53;;;2.70;;
18576;SDS011;9418;52.694;13.294;2022-07-26T06:54:13;7.23;;;2.63;;
18576;SDS011;9418;52.694;13.294;2022-07-26T06:56:40;6.37;;;3.00;;
18576;SDS011;9418;52.694;13.294;2022-07-26T06:59:06;5.53;;;2.37;;
18576;SDS011;9418;52.694;13.294;2022-07-26T07:01:33;8.30;;;2.47;;
18576;SDS011;9418;52.694;13.294;2022-07-26T07:04:00;8.40;;;2.40;;
18576;SDS011;9418;52.694;13.294;2022-07-26T07:06:27;8.67;;;2.60;;
18576;SDS011;9418;52.694;13.294;2022-07-26T07:08:54;10.43;;;2.53;;
18576;SDS011;9418;52.694;13.294;2022-07-26T07:11:20;12.30;;;3.50;;
18576;SDS011;9418;52.694;13.294;2022-07-26T07:13:47;7.17;;;3.03;;
18576;SDS011;9418;52.694;13.294;2022-07-26T07:16:14;10.90;;;3.30;;
18576;SDS011;9418;52.694;13.294;2022-07-26T07:18:40;8.93;;;2.93;;
18576;SDS011;9418;52.694;13.294;2022-07-26T07:21:07;12.53;;;3.00;;
18576;SDS011;9418;52.694;13.294;2022-07-26T07:23:34;7.20;;;2.40;;
18576;SDS011;9418;52.694;13.294;2022-07-26T07:26:01;3.50;;;2.13;;
18576;SDS011;9418;52.694;13.294;2022-07-26T07:28:28;5.50;;;2.60;;
18576;SDS011;9418;52.694;13.294;2022-07-26T07:30:57;7.37;;;2.10;;
18576;SDS011;9418;52.694;13.294;2022-07-26T07:33:23;3.50;;;2.43;;
18576;SDS011;9418;52.694;13.294;2022-07-26T07:35:50;9.37;;;2.93;;
18576;SDS011;9418;52.694;13.294;2022-07-26T07:38:17;7.13;;;2.77;;
18576;SDS011;9418;52.694;13.294;2022-07-26T07:40:45;9.70;;;2.50;;
18576;SDS011;9418;52.694;13.294;2022-07-26T07:43:12;9.53;;;2.37;;
18576;SDS011;9418;52.694;13.294;2022-07-26T07:45:38;5.90;;;2.17;;
18576;SDS011;9418;52.694;13.294;2022-07-26T07:48:05;7.20;;;2.30;;
18576;SDS011;9418;52.694;13.294;2022-07-26T07:50:31;3.20;;;2.37;;
18576;SDS011;9418;52.694;13.294;2022-07-26T07:52:58;7.47;;;2.00;;
18576;SDS011;9418;52.694;13.294;2022-07-26T07:55:24;7.63;;;2.43;;
18576;SDS011;9418;52.694;13.294;2022-07-26T07:57:52;10.23;;;2.20;;
18576;SDS011;9418;52.694;13.294;2022-07-26T08:00:19;4.07;;;1.80;;
18576;SDS011;9418;52.694;13.294;2022-07-26T08:02:46;9.77;;;2.23;;
18576;SDS011;9418;52.694;13.294;2022-07-26T08:05:12;3.80;;;2.33;;
18576;SDS011;9418;52.694;13.294;2022-07-26T08:07:39;8.90;;;2.73;;
18576;SDS011;9418;52.694;13.294;2022-07-26T08:10:06;7.50;;;2.17;;
18576;SDS011;9418;52.694;13.294;2022-07-26T08:12:33;7.07;;;2.53;;
18576;SDS011;9418;52.694;13.294;2022-07-26T08:15:01;5.17;;;2.10;;
18576;SDS011;9418;52.694;13.294;2022-07-26T08:17:29;3.77;;;1.60;;
18576;SDS011;9418;52.694;13.294;2022-07-26T08:19:55;6.73;;;2.17;;
18576;SDS011;9418;52.694;13.294;2022-07-26T08:22:22;2.50;;;1.73;;
18576;SDS011;9418;52.694;13.294;2022-07-26T08:24:48;6.23;;;2.20;;
18576;SDS011;9418;52.694;13.294;2022-07-26T08:27:16;7.17;;;2.30;;
18576;SDS011;9418;52.694;13.294;2022-07-26T08:29:43;4.20;;;1.93;;
18576;SDS011;9418;52.694;13.294;2022-07-26T08:32:11;7.50;;;2.97;;
18576;SDS011;9418;52.694;13.294;2022-07-26T08:34:37;4.90;;;1.73;;
18576;SDS011;9418;52.694;13.294;2022-07-26T08:37:04;3.27;;;1.70;;
18576;SDS011;9418;52.694;13.294;2022-07-26T08:39:31;1.93;;;1.67;;
18576;SDS011;9418;52.694;13.294;2022-07-26T08:41:58;15.47;;;2.30;;
18576;SDS011;9418;52.694;13.294;2022-07-26T08:44:24;5.87;;;1.90;;
18576;SDS011;9418;52.694;13.294;2022-07-26T08:46:51;11.70;;;1.83;;
18576;SDS011;9418;52.694;13.294;2022-07-26T08:49:19;10.13;;;2.10;;
18576;SDS011;9418;52.694;13.294;2022-07-26T08:51:46;4.33;;;1.87;;
18576;SDS011;9418;52.694;13.294;2022-07-26T08:54:13;4.80;;;1.90;;
18576;SDS011;9418;52.694;13.294;2022-07-26T08:56:41;11.43;;;2.47;;
18576;SDS011;9418;52.694;13.294;2022-07-26T08:59:15;7.20;;;2.33;;
18576;SDS011;9418;52.694;13.294;2022-07-26T09:01:53;2.70;;;1.40;;
18576;SDS011;9418;52.694;13.294;2022-07-26T09:04:23;4.77;;;1.90;;
18576;SDS011;9418;52.694;13.294;2022-07-26T09:06:55;3.23;;;1.77;;
18576;SDS011;9418;52.694;13.294;2022-07-26T09:09:24;7.07;;;1.67;;
18576;SDS011;9418;52.694;13.294;2022-07-26T09:11:52;3.93;;;1.67;;
18576;SDS011;9418;52.694;13.294;2022-07-26T09:14:19;10.13;;;1.77;;
18576;SDS011;9418;52.694;13.294;2022-07-26T09:16:54;3.97;;;1.97;;
18576;SDS011;9418;52.694;13.294;2022-07-26T09:19:25;11.83;;;2.40;;
18576;SDS011;9418;52.694;13.294;2022-07-26T09:21:52;4.90;;;1.80;;
18576;SDS011;9418;52.694;13.294;2022-07-26T09:24:28;8.70;;;2.30;;
18576;SDS011;9418;52.694;13.294;2022-07-26T09:26:56;3.60;;;1.87;;
18576;SDS011;9418;52.694;13.294;2022-07-26T09:29:24;4.47;;;2.00;;
18576;SDS011;9418;52.694;13.294;2022-07-26T09:31:52;5.00;;;2.13;;
18576;SDS011;9418;52.694;13.294;2022-07-26T09:34:37;12.90;;;2.13;;
18576;SDS011;9418;52.694;13.294;2022-07-26T09:37:04;4.20;;;1.73;;
18576;SDS011;9418;52.694;13.294;2022-07-26T09:39:31;5.00;;;2.10;;
18576;SDS011;9418;52.694;13.294;2022-07-26T09:41:58;4.97;;;2.50;;
18576;SDS011;9418;52.694;13.294;2022-07-26T09:44:31;4.07;;;1.47;;
18576;SDS011;9418;52.694;13.294;2022-07-26T09:47:05;2.80;;;1.60;;
18576;SDS011;9418;52.694;13.294;2022-07-26T09:49:31;3.50;;;1.60;;
18576;SDS011;9418;52.694;13.294;2022-07-26T09:51:59;7.30;;;1.87;;
18576;SDS011;9418;52.694;13.294;2022-07-26T09:54:29;6.93;;;1.80;;
18576;SDS011;9418;52.694;13.294;2022-07-26T09:56:57;2.90;;;1.60;;
18576;SDS011;9418;52.694;13.294;2022-07-26T09:59:25;1.30;;;1.20;;
18576;SDS011;9418;52.694;13.294;2022-07-26T10:01:53;4.67;;;1.70;;
18576;SDS011;9418;52.694;13.294;2022-07-26T10:04:22;6.03;;;1.50;;
18576;SDS011;9418;52.694;13.294;2022-07-26T10:06:49;5.67;;;1.63;;
18576;SDS011;9418;52.694;13.294;2022-07-26T10:09:17;1.73;;;1.50;;
18576;SDS011;9418;52.694;13.294;2022-07-26T10:11:46;4.83;;;1.30;;
18576;SDS011;9418;52.694;13.294;2022-07-26T10:14:37;6.93;;;1.87;;
18576;SDS011;9418;52.694;13.294;2022-07-26T10:23:04;4.83;;;1.37;;
18576;SDS011;9418;52.694;13.294;2022-07-26T10:26:02;3.37;;;1.47;;
18576;SDS011;9418;52.694;13.294;2022-07-26T10:28:30;3.07;;;1.40;;
18576;SDS011;9418;52.694;13.294;2022-07-26T10:33:53;6.60;;;1.30;;
18576;SDS011;9418;52.694;13.294;2022-07-26T10:36:25;4.53;;;1.30;;
18576;SDS011;9418;52.694;13.294;2022-07-26T10:39:01;6.67;;;2.17;;
18576;SDS011;9418;52.694;13.294;2022-07-26T10:41:36;1.90;;;1.37;;
18576;SDS011;9418;52.694;13.294;2022-07-26T10:44:14;5.83;;;1.60;;
18576;SDS011;9418;52.694;13.294;2022-07-26T10:49:40;5.50;;;1.53;;
18576;SDS011;9418;52.694;13.294;2022-07-26T10:52:10;3.83;;;1.70;;
18576;SDS011;9418;52.694;13.294;2022-07-26T10:57:41;7.40;;;1.87;;
18576;SDS011;9418;52.694;13.294;2022-07-26T11:00:10;1.93;;;1.00;;
18576;SDS011;9418;52.694;13.294;2022-07-26T11:02:42;4.10;;;1.60;;
18576;SDS011;9418;52.694;13.294;2022-07-26T11:05:10;3.53;;;1.90;;
18576;SDS011;9418;52.694;13.294;2022-07-26T11:10:33;1.60;;;1.20;;
18576;SDS011;9418;52.694;13.294;2022-07-26T11:13:13;2.83;;;1.10;;
18576;SDS011;9418;52.694;13.294;2022-07-26T11:15:42;5.70;;;1.93;;
18576;SDS011;9418;52.694;13.294;2022-07-26T11:18:13;3.47;;;1.70;;
18576;SDS011;9418;52.694;13.294;2022-07-26T11:20:45;6.97;;;1.60;;
18576;SDS011;9418;52.694;13.294;2022-07-26T11:23:23;5.30;;;1.80;;
18576;SDS011;9418;52.694;13.294;2022-07-26T11:26:02;4.57;;;1.40;;
18576;SDS011;9418;52.694;13.294;2022-07-26T11:28:42;8.93;;;1.80;;
18576;SDS011;9418;52.694;13.294;2022-07-26T11:31:28;4.97;;;1.70;;
18576;SDS011;9418;52.694;13.294;2022-07-26T11:34:00;3.33;;;1.60;;
18576;SDS011;9418;52.694;13.294;2022-07-26T11:36:34;2.00;;;1.57;;
18576;SDS011;9418;52.694;13.294;2022-07-26T11:39:03;3.10;;;1.30;;
18576;SDS011;9418;52.694;13.294;2022-07-26T11:41:31;4.47;;;1.87;;
18576;SDS011;9418;52.694;13.294;2022-07-26T11:43:59;5.80;;;1.80;;
18576;SDS011;9418;52.694;13.294;2022-07-26T11:46:32;6.00;;;1.67;;
18576;SDS011;9418;52.694;13.294;2022-07-26T11:49:01;4.97;;;2.10;;
18576;SDS011;9418;52.694;13.294;2022-07-26T11:51:30;2.70;;;1.83;;
18576;SDS011;9418;52.694;13.294;2022-07-26T11:53:57;2.00;;;1.60;;
18576;SDS011;9418;52.694;13.294;2022-07-26T11:56:28;2.27;;;1.80;;
18576;SDS011;9418;52.694;13.294;2022-07-26T11:58:55;1.43;;;1.33;;
18576;SDS011;9418;52.694;13.294;2022-07-26T12:01:24;6.80;;;1.60;;
18576;SDS011;9418;52.694;13.294;2022-07-26T12:03:52;2.03;;;1.77;;
18576;SDS011;9418;52.694;13.294;2022-07-26T12:06:20;4.50;;;1.43;;
18576;SDS011;9418;52.694;13.294;2022-07-26T12:08:49;2.20;;;1.40;;
18576;SDS011;9418;52.694;13.294;2022-07-26T12:11:17;3.10;;;1.67;;
18576;SDS011;9418;52.694;13.294;2022-07-26T12:13:52;3.23;;;1.87;;
18576;SDS011;9418;52.694;13.294;2022-07-26T12:16:38;1.70;;;1.00;;
18576;SDS011;9418;52.694;13.294;2022-07-26T12:19:08;3.67;;;1.10;;
18576;SDS011;9418;52.694;13.294;2022-07-26T12:21:36;0.90;;;0.90;;
18576;SDS011;9418;52.694;13.294;2022-07-26T12:24:04;10.80;;;1.00;;
18576;SDS011;9418;52.694;13.294;2022-07-26T12:26:31;2.93;;;1.20;;
18576;SDS011;9418;52.694;13.294;2022-07-26T12:28:58;1.17;;;1.00;;
18576;SDS011;9418;52.694;13.294;2022-07-26T12:31:50;2.40;;;1.33;;
18576;SDS011;9418;52.694;13.294;2022-07-26T12:34:26;1.53;;;1.00;;
18576;SDS011;9418;52.694;13.294;2022-07-26T12:36:53;1.77;;;1.17;;
18576;SDS011;9418;52.694;13.294;2022-07-26T12:39:20;5.30;;;1.13;;
18576;SDS011;9418;52.694;13.294;2022-07-26T12:41:47;3.37;;;1.10;;
18576;SDS011;9418;52.694;13.294;2022-07-26T12:44:15;1.53;;;0.90;;
18576;SDS011;9418;52.694;13.294;2022-07-26T12:46:42;1.97;;;0.80;;
18576;SDS011;9418;52.694;13.294;2022-07-26T12:49:10;1.50;;;1.20;;
18576;SDS011;9418;52.694;13.294;2022-07-26T12:51:37;1.10;;;1.00;;
18576;SDS011;9418;52.694;13.294;2022-07-26T12:54:04;0.87;;;0.87;;
18576;SDS011;9418;52.694;13.294;2022-07-26T12:56:31;1.33;;;0.80;;
18576;SDS011;9418;52.694;13.294;2022-07-26T12:58:58;1.63;;;1.47;;
18576;SDS011;9418;52.694;13.294;2022-07-26T13:01:25;1.83;;;1.07;;
18576;SDS011;9418;52.694;13.294;2022-07-26T13:03:53;3.60;;;0.90;;
18576;SDS011;9418;52.694;13.294;2022-07-26T13:06:21;0.90;;;0.80;;
18576;SDS011;9418;52.694;13.294;2022-07-26T13:08:48;1.20;;;1.10;;
18576;SDS011;9418;52.694;13.294;2022-07-26T13:11:14;1.13;;;1.13;;
18576;SDS011;9418;52.694;13.294;2022-07-26T13:13:41;1.30;;;1.20;;
18576;SDS011;9418;52.694;13.294;2022-07-26T13:16:08;1.43;;;1.33;;
18576;SDS011;9418;52.694;13.294;2022-07-26T13:18:34;1.03;;;1.00;;
18576;SDS011;9418;52.694;13.294;2022-07-26T13:21:01;1.73;;;1.10;;
18576;SDS011;9418;52.694;13.294;2022-07-26T13:23:29;4.83;;;1.60;;
18576;SDS011;9418;52.694;13.294;2022-07-26T13:25:56;2.30;;;1.40;;
18576;SDS011;9418;52.694;13.294;2022-07-26T13:28:22;1.47;;;1.37;;
18576;SDS011;9418;52.694;13.294;2022-07-26T13:30:49;1.83;;;1.70;;
18576;SDS011;9418;52.694;13.294;2022-07-26T13:33:15;2.87;;;1.43;;
18576;SDS011;9418;52.694;13.294;2022-07-26T13:35:42;2.20;;;1.87;;
18576;SDS011;9418;52.694;13.294;2022-07-26T13:38:09;2.00;;;1.70;;
18576;SDS011;9418;52.694;13.294;2022-07-26T13:40:37;2.87;;;2.10;;
18576;SDS011;9418;52.694;13.294;2022-07-26T13:43:04;3.37;;;1.80;;
18576;SDS011;9418;52.694;13.294;2022-07-26T13:45:30;2.23;;;1.50;;
18576;SDS011;9418;52.694;13.294;2022-07-26T13:47:57;1.83;;;1.70;;
18576;SDS011;9418;52.694;13.294;2022-07-26T13:50:23;2.93;;;1.70;;
18576;SDS011;9418;52.694;13.294;2022-07-26T13:52:50;2.20;;;1.60;;
18576;SDS011;9418;52.694;13.294;2022-07-26T13:55:17;2.77;;;1.77;;
18576;SDS011;9418;52.694;13.294;2022-07-26T13:57:46;2.87;;;1.50;;
18576;SDS011;9418;52.694;13.294;2022-07-26T14:00:12;4.50;;;1.53;;
18576;SDS011;9418;52.694;13.294;2022-07-26T14:02:40;1.93;;;1.40;;
18576;SDS011;9418;52.694;13.294;2022-07-26T14:05:06;2.03;;;1.33;;
18576;SDS011;9418;52.694;13.294;2022-07-26T14:07:34;4.23;;;1.50;;
18576;SDS011;9418;52.694;13.294;2022-07-26T14:10:00;3.00;;;1.43;;
18576;SDS011;9418;52.694;13.294;2022-07-26T14:12:27;1.90;;;1.40;;
18576;SDS011;9418;52.694;13.294;2022-07-26T14:14:55;2.87;;;1.20;;
18576;SDS011;9418;52.694;13.294;2022-07-26T14:17:21;1.93;;;1.57;;
18576;SDS011;9418;52.694;13.294;2022-07-26T14:19:48;1.27;;;1.17;;
18576;SDS011;9418;52.694;13.294;2022-07-26T14:22:15;1.50;;;1.40;;
18576;SDS011;9418;52.694;13.294;2022-07-26T14:24:42;1.63;;;1.10;;
18576;SDS011;9418;52.694;13.294;2022-07-26T14:27:08;1.33;;;1.23;;
18576;SDS011;9418;52.694;13.294;2022-07-26T14:29:35;3.37;;;1.13;;
18576;SDS011;9418;52.694;13.294;2022-07-26T14:32:03;1.90;;;1.30;;
18576;SDS011;9418;52.694;13.294;2022-07-26T14:34:30;1.37;;;1.10;;
18576;SDS011;9418;52.694;13.294;2022-07-26T14:36:56;3.43;;;1.07;;
18576;SDS011;9418;52.694;13.294;2022-07-26T14:39:23;3.50;;;1.30;;
18576;SDS011;9418;52.694;13.294;2022-07-26T14:41:50;1.43;;;1.33;;
18576;SDS011;9418;52.694;13.294;2022-07-26T14:44:16;2.20;;;1.00;;
18576;SDS011;9418;52.694;13.294;2022-07-26T14:46:43;2.60;;;1.20;;
18576;SDS011;9418;52.694;13.294;2022-07-26T14:49:11;0.80;;;0.80;;
18576;SDS011;9418;52.694;13.294;2022-07-26T14:51:38;1.23;;;1.13;;
18576;SDS011;9418;52.694;13.294;2022-07-26T14:54:05;1.77;;;0.90;;
18576;SDS011;9418;52.694;13.294;2022-07-26T14:56:31;1.50;;;1.17;;
18576;SDS011;9418;52.694;13.294;2022-07-26T14:58:58;1.10;;;1.10;;
18576;SDS011;9418;52.694;13.294;2022-07-26T15:01:24;2.00;;;1.27;;
18576;SDS011;9418;52.694;13.294;2022-07-26T15:03:52;1.10;;;0.70;;
18576;SDS011;9418;52.694;13.294;2022-07-26T15:06:20;0.80;;;0.70;;
18576;SDS011;9418;52.694;13.294;2022-07-26T15:08:46;1.77;;;1.03;;